Kouros — A8QD7 — position and weather

sailwx.info

Track history (hours):
 
Tides and Currents Weather Stations Pressure Air Temp Water Temp Dewpoint Dewpoint Depression Visibility Wind Speed Wind Dir Waves Ship Positions

Kouros

Last reported at 2017-Nov-17 00:04 UTC. Time now 2017-Nov-19 04:57 UTC.
Position N 27°31' W 014°04'.

Length 183 m; draft 9.6 m.

Type: Tanker. MMSI: 636013897.

Date/timePositionNaut miles runAvg speedWind from/ knotsBaromVisibWave heightAir tempDewpointWater temp
2017-Nov-17 00:04N 27°31' W 014°04'2712.8
2017-Nov-16 21:58N 27°54' W 013°48'5812.6
2017-Nov-16 17:22N 28°46' W 013°19'2113.0
2017-Nov-16 15:44N 29°00' W 013°01'612.5
2017-Nov-16 15:17N 29°04' W 012°57'2512.5
2017-Nov-16 13:16N 29°22' W 012°36'53112.6
2017-Nov-14 19:00N 35°57' W 005°35'511.2
2017-Nov-14 18:30N 35°60' W 005°29'510.1
2017-Nov-14 17:59N 36°02' W 005°23'510.1
2017-Nov-14 17:31N 36°04' W 005°17'2 4.1
2017-Nov-14 17:01N 36°06' W 005°16'1 1.5
2017-Nov-14 16:30N 36°05' W 005°16'0 0.9
2017-Nov-14 16:01N 36°05' W 005°16'3 3.9
2017-Nov-14 15:20N 36°06' W 005°13'  
2017-Nov-11 08:59N 36°31' E 014°02'611.8
2017-Nov-11 08:30N 36°29' E 014°09'612.1
2017-Nov-11 08:00N 36°28' E 014°16'611.8
2017-Nov-11 07:30N 36°26' E 014°22'611.6
2017-Nov-11 07:01N 36°23' E 014°29'611.3
2017-Nov-11 06:30N 36°21' E 014°35'510.6
2017-Nov-11 06:00N 36°19' E 014°42'510.4
2017-Nov-11 05:30N 36°17' E 014°48'  
Track history (hours):
 
Tides and Currents Weather Stations Pressure Air Temp Water Temp Dewpoint Dewpoint Depression Visibility Wind Speed Wind Dir Waves Ship Positions

Kouros

Last reported at 2017-Nov-17 00:04 UTC. Time now 2017-Nov-19 04:57 UTC.
Position N 27°31' W 014°04'.

Length 183 m; draft 9.6 m.

Type: Tanker. MMSI: 636013897.

Date/timePositionNaut miles runAvg speedWind from/ knotsBaromVisibWave heightAir tempDewpointWater temp
2017-Nov-17 00:04N 27°31' W 014°04'2712.8
2017-Nov-16 21:58N 27°54' W 013°48'5812.6
2017-Nov-16 17:22N 28°46' W 013°19'2113.0
2017-Nov-16 15:44N 29°00' W 013°01'612.5
2017-Nov-16 15:17N 29°04' W 012°57'2512.5
2017-Nov-16 13:16N 29°22' W 012°36'53112.6
2017-Nov-14 19:00N 35°57' W 005°35'511.2
2017-Nov-14 18:30N 35°60' W 005°29'510.1
2017-Nov-14 17:59N 36°02' W 005°23'510.1
2017-Nov-14 17:31N 36°04' W 005°17'2 4.1
2017-Nov-14 17:01N 36°06' W 005°16'1 1.5
2017-Nov-14 16:30N 36°05' W 005°16'0 0.9
2017-Nov-14 16:01N 36°05' W 005°16'3 3.9
2017-Nov-14 15:20N 36°06' W 005°13'  
2017-Nov-11 08:59N 36°31' E 014°02'611.8
2017-Nov-11 08:30N 36°29' E 014°09'612.1
2017-Nov-11 08:00N 36°28' E 014°16'611.8
2017-Nov-11 07:30N 36°26' E 014°22'611.6
2017-Nov-11 07:01N 36°23' E 014°29'611.3
2017-Nov-11 06:30N 36°21' E 014°35'510.6
2017-Nov-11 06:00N 36°19' E 014°42'510.4
2017-Nov-11 05:30N 36°17' E 014°48'  

Dump ship's entire track history